sensor_id;sensor_type;location;lat;lon;timestamp;P1;durP1;ratioP1;P2;durP2;ratioP2
68072;SDS011;54862;51.502;7.446;2023-05-07T00:01:14;16.70;;;10.45;;
68072;SDS011;54862;51.502;7.446;2023-05-07T00:03:40;15.02;;;10.20;;
68072;SDS011;54862;51.502;7.446;2023-05-07T00:06:09;14.85;;;10.50;;
68072;SDS011;54862;51.502;7.446;2023-05-07T00:08:37;16.48;;;10.43;;
68072;SDS011;54862;51.502;7.446;2023-05-07T00:11:03;16.40;;;10.43;;
68072;SDS011;54862;51.502;7.446;2023-05-07T00:13:29;15.27;;;10.02;;
68072;SDS011;54862;51.502;7.446;2023-05-07T00:16:00;15.20;;;9.85;;
68072;SDS011;54862;51.502;7.446;2023-05-07T00:18:26;15.50;;;10.27;;
68072;SDS011;54862;51.502;7.446;2023-05-07T00:20:52;14.73;;;10.00;;
68072;SDS011;54862;51.502;7.446;2023-05-07T00:23:18;15.60;;;10.60;;
68072;SDS011;54862;51.502;7.446;2023-05-07T00:25:44;14.27;;;10.13;;
68072;SDS011;54862;51.502;7.446;2023-05-07T00:28:10;17.00;;;10.43;;
68072;SDS011;54862;51.502;7.446;2023-05-07T00:30:36;17.17;;;9.65;;
68072;SDS011;54862;51.502;7.446;2023-05-07T00:33:02;16.02;;;10.07;;
68072;SDS011;54862;51.502;7.446;2023-05-07T00:35:28;15.48;;;10.07;;
68072;SDS011;54862;51.502;7.446;2023-05-07T00:37:57;14.65;;;10.15;;
68072;SDS011;54862;51.502;7.446;2023-05-07T00:40:23;14.43;;;10.23;;
68072;SDS011;54862;51.502;7.446;2023-05-07T00:42:51;13.85;;;9.68;;
68072;SDS011;54862;51.502;7.446;2023-05-07T00:45:22;14.73;;;9.88;;
68072;SDS011;54862;51.502;7.446;2023-05-07T00:47:53;15.43;;;9.80;;
68072;SDS011;54862;51.502;7.446;2023-05-07T00:50:22;15.40;;;9.98;;
68072;SDS011;54862;51.502;7.446;2023-05-07T00:52:50;16.02;;;10.13;;
68072;SDS011;54862;51.502;7.446;2023-05-07T00:55:16;14.68;;;9.95;;
68072;SDS011;54862;51.502;7.446;2023-05-07T00:57:42;21.05;;;10.00;;
68072;SDS011;54862;51.502;7.446;2023-05-07T01:00:09;14.07;;;9.25;;
68072;SDS011;54862;51.502;7.446;2023-05-07T01:02:37;15.00;;;9.90;;
68072;SDS011;54862;51.502;7.446;2023-05-07T01:05:04;14.95;;;10.00;;
68072;SDS011;54862;51.502;7.446;2023-05-07T01:07:31;14.75;;;9.25;;
68072;SDS011;54862;51.502;7.446;2023-05-07T01:09:58;15.45;;;10.02;;
68072;SDS011;54862;51.502;7.446;2023-05-07T01:12:24;14.07;;;9.25;;
68072;SDS011;54862;51.502;7.446;2023-05-07T01:14:51;14.93;;;9.68;;
68072;SDS011;54862;51.502;7.446;2023-05-07T01:17:17;15.07;;;8.95;;
68072;SDS011;54862;51.502;7.446;2023-05-07T01:19:46;13.80;;;9.07;;
68072;SDS011;54862;51.502;7.446;2023-05-07T01:22:13;14.45;;;8.95;;
68072;SDS011;54862;51.502;7.446;2023-05-07T01:24:41;14.88;;;8.25;;
68072;SDS011;54862;51.502;7.446;2023-05-07T01:27:07;13.52;;;9.35;;
68072;SDS011;54862;51.502;7.446;2023-05-07T01:29:33;15.07;;;9.02;;
68072;SDS011;54862;51.502;7.446;2023-05-07T01:31:59;14.65;;;9.10;;
68072;SDS011;54862;51.502;7.446;2023-05-07T01:34:28;17.45;;;9.23;;
68072;SDS011;54862;51.502;7.446;2023-05-07T01:36:55;15.52;;;8.93;;
68072;SDS011;54862;51.502;7.446;2023-05-07T01:39:26;17.05;;;9.30;;
68072;SDS011;54862;51.502;7.446;2023-05-07T01:41:53;15.70;;;9.98;;
68072;SDS011;54862;51.502;7.446;2023-05-07T01:44:21;14.93;;;9.48;;
68072;SDS011;54862;51.502;7.446;2023-05-07T01:46:47;14.25;;;9.45;;
68072;SDS011;54862;51.502;7.446;2023-05-07T01:49:13;14.48;;;10.00;;
68072;SDS011;54862;51.502;7.446;2023-05-07T01:51:39;15.65;;;9.77;;
68072;SDS011;54862;51.502;7.446;2023-05-07T01:54:10;14.88;;;9.65;;
68072;SDS011;54862;51.502;7.446;2023-05-07T01:56:36;15.35;;;10.50;;
68072;SDS011;54862;51.502;7.446;2023-05-07T01:59:02;14.88;;;10.07;;
68072;SDS011;54862;51.502;7.446;2023-05-07T02:01:28;16.83;;;9.68;;
68072;SDS011;54862;51.502;7.446;2023-05-07T02:03:54;15.18;;;9.98;;
68072;SDS011;54862;51.502;7.446;2023-05-07T02:06:20;14.15;;;9.40;;
68072;SDS011;54862;51.502;7.446;2023-05-07T02:08:47;16.27;;;10.32;;
68072;SDS011;54862;51.502;7.446;2023-05-07T02:11:13;14.82;;;9.57;;
68072;SDS011;54862;51.502;7.446;2023-05-07T02:13:39;16.38;;;9.60;;
68072;SDS011;54862;51.502;7.446;2023-05-07T02:16:05;15.65;;;9.40;;
68072;SDS011;54862;51.502;7.446;2023-05-07T02:18:31;15.40;;;10.32;;
68072;SDS011;54862;51.502;7.446;2023-05-07T02:20:57;15.55;;;10.82;;
68072;SDS011;54862;51.502;7.446;2023-05-07T02:23:23;13.75;;;10.18;;
68072;SDS011;54862;51.502;7.446;2023-05-07T02:25:49;15.95;;;11.02;;
68072;SDS011;54862;51.502;7.446;2023-05-07T02:28:18;15.57;;;11.55;;
68072;SDS011;54862;51.502;7.446;2023-05-07T02:30:46;14.60;;;10.57;;
68072;SDS011;54862;51.502;7.446;2023-05-07T02:33:12;17.35;;;10.85;;
68072;SDS011;54862;51.502;7.446;2023-05-07T02:35:40;15.00;;;9.80;;
68072;SDS011;54862;51.502;7.446;2023-05-07T02:38:06;16.55;;;10.00;;
68072;SDS011;54862;51.502;7.446;2023-05-07T02:40:35;16.35;;;10.68;;
68072;SDS011;54862;51.502;7.446;2023-05-07T02:43:03;17.00;;;10.10;;
68072;SDS011;54862;51.502;7.446;2023-05-07T02:45:30;13.90;;;9.57;;
68072;SDS011;54862;51.502;7.446;2023-05-07T02:47:58;18.08;;;10.20;;
68072;SDS011;54862;51.502;7.446;2023-05-07T02:50:24;14.18;;;9.75;;
68072;SDS011;54862;51.502;7.446;2023-05-07T02:52:52;14.07;;;9.15;;
68072;SDS011;54862;51.502;7.446;2023-05-07T02:55:18;16.60;;;10.63;;
68072;SDS011;54862;51.502;7.446;2023-05-07T02:57:44;14.85;;;10.35;;
68072;SDS011;54862;51.502;7.446;2023-05-07T03:00:11;16.70;;;10.88;;
68072;SDS011;54862;51.502;7.446;2023-05-07T03:02:37;15.25;;;9.88;;
68072;SDS011;54862;51.502;7.446;2023-05-07T03:05:03;14.93;;;9.90;;
68072;SDS011;54862;51.502;7.446;2023-05-07T03:07:31;14.20;;;9.82;;
68072;SDS011;54862;51.502;7.446;2023-05-07T03:09:57;15.30;;;10.18;;
68072;SDS011;54862;51.502;7.446;2023-05-07T03:12:23;16.50;;;10.55;;
68072;SDS011;54862;51.502;7.446;2023-05-07T03:14:51;16.58;;;10.32;;
68072;SDS011;54862;51.502;7.446;2023-05-07T03:17:17;17.40;;;10.77;;
68072;SDS011;54862;51.502;7.446;2023-05-07T03:19:43;15.30;;;10.65;;
68072;SDS011;54862;51.502;7.446;2023-05-07T03:22:11;17.65;;;11.57;;
68072;SDS011;54862;51.502;7.446;2023-05-07T03:24:37;15.50;;;10.57;;
68072;SDS011;54862;51.502;7.446;2023-05-07T03:27:06;16.48;;;11.00;;
68072;SDS011;54862;51.502;7.446;2023-05-07T03:29:32;14.40;;;10.27;;
68072;SDS011;54862;51.502;7.446;2023-05-07T03:32:00;14.60;;;10.32;;
68072;SDS011;54862;51.502;7.446;2023-05-07T03:34:26;18.13;;;11.85;;
68072;SDS011;54862;51.502;7.446;2023-05-07T03:36:52;16.73;;;11.32;;
68072;SDS011;54862;51.502;7.446;2023-05-07T03:39:18;18.98;;;12.35;;
68072;SDS011;54862;51.502;7.446;2023-05-07T03:41:46;17.88;;;11.93;;
68072;SDS011;54862;51.502;7.446;2023-05-07T03:44:12;17.70;;;12.20;;
68072;SDS011;54862;51.502;7.446;2023-05-07T03:46:38;16.38;;;12.20;;
68072;SDS011;54862;51.502;7.446;2023-05-07T03:49:04;16.42;;;12.20;;
68072;SDS011;54862;51.502;7.446;2023-05-07T03:51:30;18.48;;;12.05;;
68072;SDS011;54862;51.502;7.446;2023-05-07T03:54:00;21.75;;;12.75;;
68072;SDS011;54862;51.502;7.446;2023-05-07T03:56:29;16.38;;;12.02;;
68072;SDS011;54862;51.502;7.446;2023-05-07T03:58:56;16.33;;;12.02;;
68072;SDS011;54862;51.502;7.446;2023-05-07T04:01:24;19.08;;;12.23;;
68072;SDS011;54862;51.502;7.446;2023-05-07T04:03:50;19.42;;;13.07;;
68072;SDS011;54862;51.502;7.446;2023-05-07T04:06:21;20.15;;;12.82;;
68072;SDS011;54862;51.502;7.446;2023-05-07T04:08:47;17.70;;;12.13;;
68072;SDS011;54862;51.502;7.446;2023-05-07T04:11:13;18.90;;;12.68;;
68072;SDS011;54862;51.502;7.446;2023-05-07T04:13:44;17.83;;;12.13;;
68072;SDS011;54862;51.502;7.446;2023-05-07T04:16:10;17.25;;;12.32;;
68072;SDS011;54862;51.502;7.446;2023-05-07T04:18:36;18.60;;;11.88;;
68072;SDS011;54862;51.502;7.446;2023-05-07T04:21:05;16.48;;;12.00;;
68072;SDS011;54862;51.502;7.446;2023-05-07T04:23:31;15.95;;;11.75;;
68072;SDS011;54862;51.502;7.446;2023-05-07T04:25:57;15.65;;;10.73;;
68072;SDS011;54862;51.502;7.446;2023-05-07T04:28:23;18.15;;;11.93;;
68072;SDS011;54862;51.502;7.446;2023-05-07T04:30:49;18.65;;;11.55;;
68072;SDS011;54862;51.502;7.446;2023-05-07T04:33:16;16.60;;;11.55;;
68072;SDS011;54862;51.502;7.446;2023-05-07T04:35:42;15.98;;;10.90;;
68072;SDS011;54862;51.502;7.446;2023-05-07T04:38:08;17.02;;;11.45;;
68072;SDS011;54862;51.502;7.446;2023-05-07T04:40:35;17.05;;;10.85;;
68072;SDS011;54862;51.502;7.446;2023-05-07T04:43:01;17.65;;;11.60;;
68072;SDS011;54862;51.502;7.446;2023-05-07T04:45:30;16.00;;;11.10;;
68072;SDS011;54862;51.502;7.446;2023-05-07T04:47:56;14.70;;;9.75;;
68072;SDS011;54862;51.502;7.446;2023-05-07T04:50:22;16.98;;;11.00;;
68072;SDS011;54862;51.502;7.446;2023-05-07T04:52:51;14.32;;;10.30;;
68072;SDS011;54862;51.502;7.446;2023-05-07T04:55:17;15.95;;;11.23;;
68072;SDS011;54862;51.502;7.446;2023-05-07T04:57:43;16.05;;;10.63;;
68072;SDS011;54862;51.502;7.446;2023-05-07T05:00:10;14.77;;;9.88;;
68072;SDS011;54862;51.502;7.446;2023-05-07T05:02:39;13.13;;;9.57;;
68072;SDS011;54862;51.502;7.446;2023-05-07T05:05:06;15.70;;;10.68;;
68072;SDS011;54862;51.502;7.446;2023-05-07T05:07:32;15.00;;;10.43;;
68072;SDS011;54862;51.502;7.446;2023-05-07T05:09:58;15.73;;;10.15;;
68072;SDS011;54862;51.502;7.446;2023-05-07T05:12:24;16.92;;;9.85;;
68072;SDS011;54862;51.502;7.446;2023-05-07T05:14:50;14.07;;;9.18;;
68072;SDS011;54862;51.502;7.446;2023-05-07T05:17:16;16.63;;;9.23;;
68072;SDS011;54862;51.502;7.446;2023-05-07T05:19:42;13.52;;;9.75;;
68072;SDS011;54862;51.502;7.446;2023-05-07T05:22:08;14.73;;;9.85;;
68072;SDS011;54862;51.502;7.446;2023-05-07T05:24:34;16.02;;;9.27;;
68072;SDS011;54862;51.502;7.446;2023-05-07T05:27:00;12.40;;;8.88;;
68072;SDS011;54862;51.502;7.446;2023-05-07T05:29:27;13.52;;;8.52;;
68072;SDS011;54862;51.502;7.446;2023-05-07T05:31:53;16.88;;;9.75;;
68072;SDS011;54862;51.502;7.446;2023-05-07T05:34:19;13.35;;;8.35;;
68072;SDS011;54862;51.502;7.446;2023-05-07T05:36:45;13.95;;;9.05;;
68072;SDS011;54862;51.502;7.446;2023-05-07T05:39:11;13.48;;;8.63;;
68072;SDS011;54862;51.502;7.446;2023-05-07T05:41:37;15.48;;;9.05;;
68072;SDS011;54862;51.502;7.446;2023-05-07T05:44:06;13.43;;;8.90;;
68072;SDS011;54862;51.502;7.446;2023-05-07T05:46:32;13.75;;;9.02;;
68072;SDS011;54862;51.502;7.446;2023-05-07T05:48:58;13.05;;;8.88;;
68072;SDS011;54862;51.502;7.446;2023-05-07T05:51:24;13.38;;;8.73;;
68072;SDS011;54862;51.502;7.446;2023-05-07T05:53:51;12.27;;;7.82;;
68072;SDS011;54862;51.502;7.446;2023-05-07T05:56:19;13.40;;;8.55;;
68072;SDS011;54862;51.502;7.446;2023-05-07T05:58:48;13.43;;;8.45;;
68072;SDS011;54862;51.502;7.446;2023-05-07T06:01:14;15.55;;;8.70;;
68072;SDS011;54862;51.502;7.446;2023-05-07T06:03:40;10.82;;;7.57;;
68072;SDS011;54862;51.502;7.446;2023-05-07T06:06:06;14.57;;;8.40;;
68072;SDS011;54862;51.502;7.446;2023-05-07T06:08:32;12.00;;;7.88;;
68072;SDS011;54862;51.502;7.446;2023-05-07T06:11:01;15.52;;;8.05;;
68072;SDS011;54862;51.502;7.446;2023-05-07T06:13:27;13.90;;;8.05;;
68072;SDS011;54862;51.502;7.446;2023-05-07T06:15:53;12.25;;;7.38;;
68072;SDS011;54862;51.502;7.446;2023-05-07T06:18:19;11.02;;;7.00;;
68072;SDS011;54862;51.502;7.446;2023-05-07T06:20:45;11.73;;;7.18;;
68072;SDS011;54862;51.502;7.446;2023-05-07T06:23:11;11.90;;;7.47;;
68072;SDS011;54862;51.502;7.446;2023-05-07T06:25:37;10.65;;;7.30;;
68072;SDS011;54862;51.502;7.446;2023-05-07T06:28:03;14.10;;;7.13;;
68072;SDS011;54862;51.502;7.446;2023-05-07T06:30:29;11.30;;;7.05;;
68072;SDS011;54862;51.502;7.446;2023-05-07T06:32:55;10.15;;;6.50;;
68072;SDS011;54862;51.502;7.446;2023-05-07T06:35:21;11.25;;;6.38;;
68072;SDS011;54862;51.502;7.446;2023-05-07T06:37:49;13.13;;;6.43;;
68072;SDS011;54862;51.502;7.446;2023-05-07T06:40:15;11.32;;;6.35;;
68072;SDS011;54862;51.502;7.446;2023-05-07T06:42:41;9.95;;;6.30;;
68072;SDS011;54862;51.502;7.446;2023-05-07T06:45:08;10.38;;;6.32;;
68072;SDS011;54862;51.502;7.446;2023-05-07T06:47:34;10.07;;;6.05;;
68072;SDS011;54862;51.502;7.446;2023-05-07T06:50:00;11.30;;;6.32;;
68072;SDS011;54862;51.502;7.446;2023-05-07T06:52:26;14.00;;;6.65;;
68072;SDS011;54862;51.502;7.446;2023-05-07T06:54:52;11.65;;;6.05;;
68072;SDS011;54862;51.502;7.446;2023-05-07T06:57:18;14.90;;;7.18;;
68072;SDS011;54862;51.502;7.446;2023-05-07T06:59:46;9.85;;;6.30;;
68072;SDS011;54862;51.502;7.446;2023-05-07T07:02:12;10.82;;;6.45;;
68072;SDS011;54862;51.502;7.446;2023-05-07T07:04:38;10.77;;;6.90;;
68072;SDS011;54862;51.502;7.446;2023-05-07T07:07:05;11.13;;;6.38;;
68072;SDS011;54862;51.502;7.446;2023-05-07T07:09:33;11.48;;;6.90;;
68072;SDS011;54862;51.502;7.446;2023-05-07T07:11:59;13.13;;;7.18;;
68072;SDS011;54862;51.502;7.446;2023-05-07T07:14:25;10.18;;;6.80;;
68072;SDS011;54862;51.502;7.446;2023-05-07T07:16:51;11.48;;;6.95;;
68072;SDS011;54862;51.502;7.446;2023-05-07T07:19:17;10.75;;;6.28;;
68072;SDS011;54862;51.502;7.446;2023-05-07T07:21:45;9.85;;;6.20;;
68072;SDS011;54862;51.502;7.446;2023-05-07T07:24:11;12.50;;;7.30;;
68072;SDS011;54862;51.502;7.446;2023-05-07T07:26:43;12.85;;;7.28;;
68072;SDS011;54862;51.502;7.446;2023-05-07T07:29:09;11.45;;;7.20;;
68072;SDS011;54862;51.502;7.446;2023-05-07T07:31:35;10.50;;;6.65;;
68072;SDS011;54862;51.502;7.446;2023-05-07T07:34:01;12.10;;;7.05;;
68072;SDS011;54862;51.502;7.446;2023-05-07T07:36:30;11.40;;;7.10;;
68072;SDS011;54862;51.502;7.446;2023-05-07T07:38:58;12.30;;;7.70;;
68072;SDS011;54862;51.502;7.446;2023-05-07T07:41:24;11.52;;;7.63;;
68072;SDS011;54862;51.502;7.446;2023-05-07T07:43:50;11.05;;;6.95;;
68072;SDS011;54862;51.502;7.446;2023-05-07T07:46:18;10.80;;;7.13;;
68072;SDS011;54862;51.502;7.446;2023-05-07T07:48:47;11.68;;;7.22;;
68072;SDS011;54862;51.502;7.446;2023-05-07T07:51:15;11.57;;;6.95;;
68072;SDS011;54862;51.502;7.446;2023-05-07T07:53:41;12.13;;;6.85;;
68072;SDS011;54862;51.502;7.446;2023-05-07T07:56:10;13.18;;;7.32;;
68072;SDS011;54862;51.502;7.446;2023-05-07T07:58:36;11.52;;;6.72;;
68072;SDS011;54862;51.502;7.446;2023-05-07T08:01:02;11.68;;;7.20;;
68072;SDS011;54862;51.502;7.446;2023-05-07T08:03:28;12.70;;;7.63;;
68072;SDS011;54862;51.502;7.446;2023-05-07T08:05:57;12.60;;;7.00;;
68072;SDS011;54862;51.502;7.446;2023-05-07T08:08:23;11.75;;;7.50;;
68072;SDS011;54862;51.502;7.446;2023-05-07T08:10:49;10.90;;;6.95;;
68072;SDS011;54862;51.502;7.446;2023-05-07T08:13:17;13.02;;;6.82;;
68072;SDS011;54862;51.502;7.446;2023-05-07T08:15:43;14.38;;;8.13;;
68072;SDS011;54862;51.502;7.446;2023-05-07T08:18:09;12.23;;;7.13;;
68072;SDS011;54862;51.502;7.446;2023-05-07T08:20:35;12.50;;;7.90;;
68072;SDS011;54862;51.502;7.446;2023-05-07T08:23:04;12.02;;;7.50;;
68072;SDS011;54862;51.502;7.446;2023-05-07T08:25:35;13.07;;;7.40;;
68072;SDS011;54862;51.502;7.446;2023-05-07T08:28:02;13.25;;;8.32;;
68072;SDS011;54862;51.502;7.446;2023-05-07T08:30:28;13.63;;;8.38;;
68072;SDS011;54862;51.502;7.446;2023-05-07T08:32:54;13.48;;;9.00;;
68072;SDS011;54862;51.502;7.446;2023-05-07T08:35:20;15.73;;;8.05;;
68072;SDS011;54862;51.502;7.446;2023-05-07T08:37:48;14.35;;;8.38;;
68072;SDS011;54862;51.502;7.446;2023-05-07T08:40:17;14.27;;;8.35;;
68072;SDS011;54862;51.502;7.446;2023-05-07T08:42:43;14.88;;;8.70;;
68072;SDS011;54862;51.502;7.446;2023-05-07T08:45:14;14.73;;;9.45;;
68072;SDS011;54862;51.502;7.446;2023-05-07T08:47:44;14.25;;;8.98;;
68072;SDS011;54862;51.502;7.446;2023-05-07T08:50:12;17.88;;;9.75;;
68072;SDS011;54862;51.502;7.446;2023-05-07T08:52:41;14.50;;;9.90;;
68072;SDS011;54862;51.502;7.446;2023-05-07T08:55:08;15.80;;;9.60;;
68072;SDS011;54862;51.502;7.446;2023-05-07T08:57:34;15.77;;;9.20;;
68072;SDS011;54862;51.502;7.446;2023-05-07T09:00:01;15.25;;;9.50;;
68072;SDS011;54862;51.502;7.446;2023-05-07T09:02:27;14.80;;;9.80;;
68072;SDS011;54862;51.502;7.446;2023-05-07T09:04:56;17.42;;;10.43;;
68072;SDS011;54862;51.502;7.446;2023-05-07T09:07:22;13.75;;;8.93;;
68072;SDS011;54862;51.502;7.446;2023-05-07T09:09:48;15.10;;;9.40;;
68072;SDS011;54862;51.502;7.446;2023-05-07T09:12:14;17.25;;;10.77;;
68072;SDS011;54862;51.502;7.446;2023-05-07T09:14:40;16.20;;;10.43;;
68072;SDS011;54862;51.502;7.446;2023-05-07T09:17:06;17.05;;;11.25;;
68072;SDS011;54862;51.502;7.446;2023-05-07T09:19:32;17.77;;;10.10;;
68072;SDS011;54862;51.502;7.446;2023-05-07T09:22:02;15.65;;;10.27;;
68072;SDS011;54862;51.502;7.446;2023-05-07T09:24:28;14.48;;;8.77;;
68072;SDS011;54862;51.502;7.446;2023-05-07T09:27:01;13.93;;;9.43;;
68072;SDS011;54862;51.502;7.446;2023-05-07T09:29:27;17.08;;;9.25;;
68072;SDS011;54862;51.502;7.446;2023-05-07T09:31:55;13.32;;;9.23;;
68072;SDS011;54862;51.502;7.446;2023-05-07T09:34:21;15.23;;;9.50;;
68072;SDS011;54862;51.502;7.446;2023-05-07T09:36:47;14.45;;;9.85;;
68072;SDS011;54862;51.502;7.446;2023-05-07T09:39:13;15.68;;;10.48;;
68072;SDS011;54862;51.502;7.446;2023-05-07T09:41:48;15.32;;;10.20;;
68072;SDS011;54862;51.502;7.446;2023-05-07T09:44:16;14.85;;;9.52;;
68072;SDS011;54862;51.502;7.446;2023-05-07T09:46:47;16.60;;;9.85;;
68072;SDS011;54862;51.502;7.446;2023-05-07T09:49:21;17.48;;;11.27;;
68072;SDS011;54862;51.502;7.446;2023-05-07T09:51:52;19.40;;;11.38;;
68072;SDS011;54862;51.502;7.446;2023-05-07T09:54:18;15.90;;;9.65;;
68072;SDS011;54862;51.502;7.446;2023-05-07T09:56:44;16.55;;;9.90;;
68072;SDS011;54862;51.502;7.446;2023-05-07T09:59:14;13.23;;;8.75;;
68072;SDS011;54862;51.502;7.446;2023-05-07T10:01:43;12.68;;;8.30;;
68072;SDS011;54862;51.502;7.446;2023-05-07T10:04:10;13.43;;;8.30;;
68072;SDS011;54862;51.502;7.446;2023-05-07T10:06:36;11.55;;;7.10;;
68072;SDS011;54862;51.502;7.446;2023-05-07T10:09:04;16.35;;;7.70;;
68072;SDS011;54862;51.502;7.446;2023-05-07T10:11:33;11.80;;;6.75;;
68072;SDS011;54862;51.502;7.446;2023-05-07T10:13:59;12.60;;;6.82;;
68072;SDS011;54862;51.502;7.446;2023-05-07T10:16:34;12.73;;;6.97;;
68072;SDS011;54862;51.502;7.446;2023-05-07T10:19:03;13.02;;;7.30;;
68072;SDS011;54862;51.502;7.446;2023-05-07T10:21:30;13.05;;;7.03;;
68072;SDS011;54862;51.502;7.446;2023-05-07T10:24:03;11.82;;;6.13;;
68072;SDS011;54862;51.502;7.446;2023-05-07T10:26:36;12.00;;;6.20;;
68072;SDS011;54862;51.502;7.446;2023-05-07T10:29:07;10.65;;;6.28;;
68072;SDS011;54862;51.502;7.446;2023-05-07T10:34:14;9.77;;;5.97;;
68072;SDS011;54862;51.502;7.446;2023-05-07T10:36:42;11.13;;;6.07;;
68072;SDS011;54862;51.502;7.446;2023-05-07T10:39:13;13.68;;;7.05;;
68072;SDS011;54862;51.502;7.446;2023-05-07T10:41:41;9.60;;;6.07;;
68072;SDS011;54862;51.502;7.446;2023-05-07T10:44:07;10.88;;;5.43;;
68072;SDS011;54862;51.502;7.446;2023-05-07T10:46:33;8.73;;;4.70;;
68072;SDS011;54862;51.502;7.446;2023-05-07T10:51:31;10.32;;;5.15;;
68072;SDS011;54862;51.502;7.446;2023-05-07T10:56:38;11.90;;;4.93;;
68072;SDS011;54862;51.502;7.446;2023-05-07T11:01:52;10.98;;;5.47;;
68072;SDS011;54862;51.502;7.446;2023-05-07T11:04:21;10.77;;;6.03;;
68072;SDS011;54862;51.502;7.446;2023-05-07T11:15:06;11.20;;;6.07;;
68072;SDS011;54862;51.502;7.446;2023-05-07T11:17:32;10.43;;;5.80;;
68072;SDS011;54862;51.502;7.446;2023-05-07T11:20:02;11.82;;;6.70;;
68072;SDS011;54862;51.502;7.446;2023-05-07T11:25:00;10.50;;;6.72;;
68072;SDS011;54862;51.502;7.446;2023-05-07T11:27:27;11.45;;;6.82;;
68072;SDS011;54862;51.502;7.446;2023-05-07T11:29:52;10.55;;;6.47;;
68072;SDS011;54862;51.502;7.446;2023-05-07T11:32:27;10.98;;;6.60;;
68072;SDS011;54862;51.502;7.446;2023-05-07T11:34:55;11.68;;;6.68;;
68072;SDS011;54862;51.502;7.446;2023-05-07T11:37:24;14.93;;;8.40;;
68072;SDS011;54862;51.502;7.446;2023-05-07T11:39:51;13.35;;;8.07;;
68072;SDS011;54862;51.502;7.446;2023-05-07T11:44:56;16.15;;;7.82;;
68072;SDS011;54862;51.502;7.446;2023-05-07T11:47:25;13.07;;;7.53;;
68072;SDS011;54862;51.502;7.446;2023-05-07T11:49:52;12.55;;;7.07;;
68072;SDS011;54862;51.502;7.446;2023-05-07T11:52:21;11.10;;;6.25;;
68072;SDS011;54862;51.502;7.446;2023-05-07T11:57:19;10.93;;;6.20;;
68072;SDS011;54862;51.502;7.446;2023-05-07T11:59:45;10.00;;;6.10;;
68072;SDS011;54862;51.502;7.446;2023-05-07T12:02:18;10.20;;;6.05;;
68072;SDS011;54862;51.502;7.446;2023-05-07T12:04:46;12.65;;;6.43;;
68072;SDS011;54862;51.502;7.446;2023-05-07T12:07:13;11.95;;;6.30;;
68072;SDS011;54862;51.502;7.446;2023-05-07T12:09:42;9.55;;;5.70;;
68072;SDS011;54862;51.502;7.446;2023-05-07T12:12:08;9.63;;;6.20;;
68072;SDS011;54862;51.502;7.446;2023-05-07T12:14:43;14.48;;;7.75;;
68072;SDS011;54862;51.502;7.446;2023-05-07T12:17:13;11.30;;;6.68;;
68072;SDS011;54862;51.502;7.446;2023-05-07T12:19:40;12.43;;;6.38;;
68072;SDS011;54862;51.502;7.446;2023-05-07T12:22:07;11.25;;;6.80;;
68072;SDS011;54862;51.502;7.446;2023-05-07T12:24:46;14.57;;;8.00;;
68072;SDS011;54862;51.502;7.446;2023-05-07T12:27:15;15.38;;;7.55;;
68072;SDS011;54862;51.502;7.446;2023-05-07T12:29:48;13.57;;;7.75;;
68072;SDS011;54862;51.502;7.446;2023-05-07T12:32:15;11.68;;;7.00;;
68072;SDS011;54862;51.502;7.446;2023-05-07T12:34:41;13.00;;;7.10;;
68072;SDS011;54862;51.502;7.446;2023-05-07T12:37:07;12.52;;;6.47;;
68072;SDS011;54862;51.502;7.446;2023-05-07T12:39:36;11.80;;;6.72;;
68072;SDS011;54862;51.502;7.446;2023-05-07T12:42:02;9.73;;;5.63;;
68072;SDS011;54862;51.502;7.446;2023-05-07T12:44:32;12.52;;;6.80;;
68072;SDS011;54862;51.502;7.446;2023-05-07T12:46:58;10.38;;;6.47;;
68072;SDS011;54862;51.502;7.446;2023-05-07T12:49:29;12.88;;;6.70;;
68072;SDS011;54862;51.502;7.446;2023-05-07T12:51:55;11.85;;;7.20;;
68072;SDS011;54862;51.502;7.446;2023-05-07T12:54:34;11.60;;;7.20;;
68072;SDS011;54862;51.502;7.446;2023-05-07T12:57:07;11.77;;;6.63;;
68072;SDS011;54862;51.502;7.446;2023-05-07T12:59:37;11.60;;;6.45;;
68072;SDS011;54862;51.502;7.446;2023-05-07T13:02:06;10.35;;;6.53;;
68072;SDS011;54862;51.502;7.446;2023-05-07T13:04:32;11.15;;;6.85;;
68072;SDS011;54862;51.502;7.446;2023-05-07T13:06:58;10.85;;;6.50;;
68072;SDS011;54862;51.502;7.446;2023-05-07T13:09:24;10.68;;;6.15;;
68072;SDS011;54862;51.502;7.446;2023-05-07T13:11:53;9.32;;;5.60;;
68072;SDS011;54862;51.502;7.446;2023-05-07T13:14:20;10.15;;;5.80;;
68072;SDS011;54862;51.502;7.446;2023-05-07T13:16:46;12.52;;;6.93;;
68072;SDS011;54862;51.502;7.446;2023-05-07T13:19:12;9.65;;;6.03;;
68072;SDS011;54862;51.502;7.446;2023-05-07T13:21:38;11.40;;;6.38;;
68072;SDS011;54862;51.502;7.446;2023-05-07T13:24:04;12.13;;;6.13;;
68072;SDS011;54862;51.502;7.446;2023-05-07T13:26:33;10.02;;;5.80;;
68072;SDS011;54862;51.502;7.446;2023-05-07T13:28:59;10.98;;;6.18;;
68072;SDS011;54862;51.502;7.446;2023-05-07T13:31:27;9.77;;;5.93;;
68072;SDS011;54862;51.502;7.446;2023-05-07T13:33:56;8.85;;;5.50;;
68072;SDS011;54862;51.502;7.446;2023-05-07T13:36:22;9.13;;;5.15;;
68072;SDS011;54862;51.502;7.446;2023-05-07T13:38:48;9.60;;;5.28;;
68072;SDS011;54862;51.502;7.446;2023-05-07T13:41:17;10.57;;;5.20;;
68072;SDS011;54862;51.502;7.446;2023-05-07T13:43:43;9.75;;;5.32;;
68072;SDS011;54862;51.502;7.446;2023-05-07T13:46:09;8.95;;;4.60;;
68072;SDS011;54862;51.502;7.446;2023-05-07T13:48:35;8.80;;;5.10;;
68072;SDS011;54862;51.502;7.446;2023-05-07T13:51:03;9.00;;;5.15;;
68072;SDS011;54862;51.502;7.446;2023-05-07T13:53:32;9.43;;;5.72;;
68072;SDS011;54862;51.502;7.446;2023-05-07T13:55:58;10.25;;;6.10;;
68072;SDS011;54862;51.502;7.446;2023-05-07T13:58:23;9.98;;;5.60;;
68072;SDS011;54862;51.502;7.446;2023-05-07T14:00:52;10.27;;;5.65;;
68072;SDS011;54862;51.502;7.446;2023-05-07T14:03:20;11.60;;;5.57;;
68072;SDS011;54862;51.502;7.446;2023-05-07T14:05:46;8.93;;;5.10;;
68072;SDS011;54862;51.502;7.446;2023-05-07T14:08:12;9.35;;;5.40;;
68072;SDS011;54862;51.502;7.446;2023-05-07T14:10:39;9.90;;;5.30;;
68072;SDS011;54862;51.502;7.446;2023-05-07T14:13:07;10.55;;;5.10;;
68072;SDS011;54862;51.502;7.446;2023-05-07T14:15:33;8.93;;;5.55;;
68072;SDS011;54862;51.502;7.446;2023-05-07T14:18:02;10.02;;;5.38;;
68072;SDS011;54862;51.502;7.446;2023-05-07T14:20:28;10.82;;;5.70;;
68072;SDS011;54862;51.502;7.446;2023-05-07T14:22:56;12.00;;;6.22;;
68072;SDS011;54862;51.502;7.446;2023-05-07T14:25:21;11.13;;;5.90;;
68072;SDS011;54862;51.502;7.446;2023-05-07T14:27:47;9.70;;;5.97;;
68072;SDS011;54862;51.502;7.446;2023-05-07T14:30:13;10.30;;;5.93;;
68072;SDS011;54862;51.502;7.446;2023-05-07T14:32:39;10.30;;;5.93;;
68072;SDS011;54862;51.502;7.446;2023-05-07T14:35:06;9.90;;;6.20;;
68072;SDS011;54862;51.502;7.446;2023-05-07T14:37:32;10.80;;;6.30;;
68072;SDS011;54862;51.502;7.446;2023-05-07T14:39:58;10.38;;;6.47;;
68072;SDS011;54862;51.502;7.446;2023-05-07T14:42:24;11.30;;;6.93;;
68072;SDS011;54862;51.502;7.446;2023-05-07T14:44:50;11.55;;;6.82;;
68072;SDS011;54862;51.502;7.446;2023-05-07T14:47:17;11.07;;;6.18;;
68072;SDS011;54862;51.502;7.446;2023-05-07T14:49:43;12.52;;;6.50;;
68072;SDS011;54862;51.502;7.446;2023-05-07T14:52:09;11.02;;;6.50;;
68072;SDS011;54862;51.502;7.446;2023-05-07T14:54:36;11.23;;;6.72;;
68072;SDS011;54862;51.502;7.446;2023-05-07T14:57:02;10.27;;;6.18;;